Ever Decent — 9V7952 — position and weather

sailwx.info

Track history (hours):
 
Tides and Currents Weather Stations Pressure Air Temp Water Temp Dewpoint Dewpoint Depression Visibility Wind Speed Wind Dir Waves Ship Positions

Ever Decent

Last reported at 2014-Oct-25 00:00 UTC. Time now 2014-Oct-25 00:39 UTC.
Position N 47°54' E 169°12'.

Length 294 m; draft 12.1 m.

Type: Cargo ship. MMSI: 564904000.

Wind from 230 at 19 knots

Waves 2.0 meters (7 feet), 6 second period

Barometer 1025.0 mb
Air temperature 10.0 ° C
Visibility: greater than 2.2 NM
Dewpoint 8.1 ° C
Water temperature 7.0 ° C

Date/timePositionNaut miles runAvg speedWind from/ knotsBaromVisibWave heightAir tempDewpointWater temp
2014-Oct-25 00:00N 47°54' E 169°12'78516.7 230 / 191025.0 2.2 2.010.0 8.1 7.0
2014-Oct-23 01:00N 51°18' W 171°18'37615.0 280 / 241027.0 3.012.010.212.0
2014-Oct-22 00:00N 53°18' W 161°36'39317.1 250 / 24997.0 3.0 8.0 6.0 8.0
2014-Oct-21 01:00N 54°42' W 150°42'34314.3 270 / 13989.0 2.010.010.010.0
2014-Oct-20 01:00N 53°06' W 141°24'11115.8 320 / 30986.0 3.014.014.014.0
2014-Oct-19 18:00N 51°54' W 139°06'30116.7 210 / 19984.0 5.4 2.016.012.614.0
2014-Oct-19 00:00N 48°36' W 133°12'71916.8 180 / 24995.0 3.017.015.416.0
2014-Oct-17 05:13N 38°35' W 124°08'1117.3
2014-Oct-17 04:33N 38°25' W 123°60'1717.0
2014-Oct-17 03:33N 38°18' W 123°40'1716.5
2014-Oct-17 02:33N 38°10' W 123°21'1716.9
2014-Oct-17 01:33N 37°58' W 123°07'1716.8
2014-Oct-17 00:33N 37°50' W 122°48'1211.8
2014-Oct-16 23:33N 37°47' W 122°34'10 9.8
2014-Oct-16 22:33N 37°48' W 122°21'1 0.8
2014-Oct-16 21:33N 37°48' W 122°20'0 0.0
2014-Oct-16 20:31N 37°48' W 122°20'0 0.0
2014-Oct-16 19:31N 37°48' W 122°20'0 0.0
2014-Oct-16 18:31N 37°48' W 122°20'0 0.0
2014-Oct-16 17:31N 37°48' W 122°20'0 0.0
2014-Oct-16 16:31N 37°48' W 122°20'0 0.0
2014-Oct-16 15:31N 37°48' W 122°20'0 0.0
2014-Oct-16 14:31N 37°48' W 122°20'0 0.0
2014-Oct-16 13:33N 37°48' W 122°20'2 2.0
2014-Oct-16 12:33N 37°48' W 122°23'1010.2
2014-Oct-16 11:33N 37°47' W 122°36'8 8.4
2014-Oct-16 10:33N 37°42' W 122°44'8 8.0
2014-Oct-16 09:33N 37°37' W 122°53'9 8.9
2014-Oct-16 08:33N 37°32' W 123°02'1211.5
2014-Oct-16 07:33N 37°21' W 123°06'1514.9
2014-Oct-16 06:33N 37°06' W 123°04'1616.1
2014-Oct-16 05:33N 36°51' W 122°57'1616.2
2014-Oct-16 04:33N 36°36' W 122°51'1716.1
2014-Oct-16 03:31N 36°20' W 122°43'1515.7
2014-Oct-16 02:33N 36°07' W 122°33'1615.8
2014-Oct-16 01:33N 35°54' W 122°23'1816.0
2014-Oct-16 00:28N 35°39' W 122°12'1516.1
2014-Oct-15 23:33N 35°26' W 122°03'1716.1
2014-Oct-15 22:32N 35°12' W 121°53'14314.2
2014-Oct-15 12:27N 33°38' W 119°43'7312.4
2014-Oct-15 06:33N 33°43' W 118°15'3 2.5
2014-Oct-15 05:33N 33°45' W 118°16'0 0.0
2014-Oct-15 04:33N 33°45' W 118°16'0 0.0
2014-Oct-15 03:33N 33°45' W 118°16'0 0.0
2014-Oct-15 02:33N 33°45' W 118°16'0 0.0
2014-Oct-15 01:27N 33°45' W 118°16'0 0.0
2014-Oct-15 00:33N 33°45' W 118°16'  
Track history (hours):
 
Tides and Currents Weather Stations Pressure Air Temp Water Temp Dewpoint Dewpoint Depression Visibility Wind Speed Wind Dir Waves Ship Positions

Ever Decent

Last reported at 2014-Oct-25 00:00 UTC. Time now 2014-Oct-25 00:39 UTC.
Position N 47°54' E 169°12'.

Length 294 m; draft 12.1 m.

Type: Cargo ship. MMSI: 564904000.

Wind from 230 at 19 knots

Waves 2.0 meters (7 feet), 6 second period

Barometer 1025.0 mb
Air temperature 10.0 ° C
Visibility: greater than 2.2 NM
Dewpoint 8.1 ° C
Water temperature 7.0 ° C

Date/timePositionNaut miles runAvg speedWind from/ knotsBaromVisibWave heightAir tempDewpointWater temp
2014-Oct-25 00:00N 47°54' E 169°12'78516.7 230 / 191025.0 2.2 2.010.0 8.1 7.0
2014-Oct-23 01:00N 51°18' W 171°18'37615.0 280 / 241027.0 3.012.010.212.0
2014-Oct-22 00:00N 53°18' W 161°36'39317.1 250 / 24997.0 3.0 8.0 6.0 8.0
2014-Oct-21 01:00N 54°42' W 150°42'34314.3 270 / 13989.0 2.010.010.010.0
2014-Oct-20 01:00N 53°06' W 141°24'11115.8 320 / 30986.0 3.014.014.014.0
2014-Oct-19 18:00N 51°54' W 139°06'30116.7 210 / 19984.0 5.4 2.016.012.614.0
2014-Oct-19 00:00N 48°36' W 133°12'71916.8 180 / 24995.0 3.017.015.416.0
2014-Oct-17 05:13N 38°35' W 124°08'1117.3
2014-Oct-17 04:33N 38°25' W 123°60'1717.0
2014-Oct-17 03:33N 38°18' W 123°40'1716.5
2014-Oct-17 02:33N 38°10' W 123°21'1716.9
2014-Oct-17 01:33N 37°58' W 123°07'1716.8
2014-Oct-17 00:33N 37°50' W 122°48'1211.8
2014-Oct-16 23:33N 37°47' W 122°34'10 9.8
2014-Oct-16 22:33N 37°48' W 122°21'1 0.8
2014-Oct-16 21:33N 37°48' W 122°20'0 0.0
2014-Oct-16 20:31N 37°48' W 122°20'0 0.0
2014-Oct-16 19:31N 37°48' W 122°20'0 0.0
2014-Oct-16 18:31N 37°48' W 122°20'0 0.0
2014-Oct-16 17:31N 37°48' W 122°20'0 0.0
2014-Oct-16 16:31N 37°48' W 122°20'0 0.0
2014-Oct-16 15:31N 37°48' W 122°20'0 0.0
2014-Oct-16 14:31N 37°48' W 122°20'0 0.0
2014-Oct-16 13:33N 37°48' W 122°20'2 2.0
2014-Oct-16 12:33N 37°48' W 122°23'1010.2
2014-Oct-16 11:33N 37°47' W 122°36'8 8.4
2014-Oct-16 10:33N 37°42' W 122°44'8 8.0
2014-Oct-16 09:33N 37°37' W 122°53'9 8.9
2014-Oct-16 08:33N 37°32' W 123°02'1211.5
2014-Oct-16 07:33N 37°21' W 123°06'1514.9
2014-Oct-16 06:33N 37°06' W 123°04'1616.1
2014-Oct-16 05:33N 36°51' W 122°57'1616.2
2014-Oct-16 04:33N 36°36' W 122°51'1716.1
2014-Oct-16 03:31N 36°20' W 122°43'1515.7
2014-Oct-16 02:33N 36°07' W 122°33'1615.8
2014-Oct-16 01:33N 35°54' W 122°23'1816.0
2014-Oct-16 00:28N 35°39' W 122°12'1516.1
2014-Oct-15 23:33N 35°26' W 122°03'1716.1
2014-Oct-15 22:32N 35°12' W 121°53'14314.2
2014-Oct-15 12:27N 33°38' W 119°43'7312.4
2014-Oct-15 06:33N 33°43' W 118°15'3 2.5
2014-Oct-15 05:33N 33°45' W 118°16'0 0.0
2014-Oct-15 04:33N 33°45' W 118°16'0 0.0
2014-Oct-15 03:33N 33°45' W 118°16'0 0.0
2014-Oct-15 02:33N 33°45' W 118°16'0 0.0
2014-Oct-15 01:27N 33°45' W 118°16'0 0.0
2014-Oct-15 00:33N 33°45' W 118°16'  

Dump ship's entire track history